Blacky — MANN9 — position and weather

sailwx.info

Track history (hours):
 
Tides and Currents Weather Stations Pressure Air Temp Water Temp Dewpoint Dewpoint Depression Visibility Wind Speed Wind Dir Waves Ship Positions

Blacky

Last reported at 2017-Nov-18 15:06 UTC. Time now 2017-Dec-13 16:56 UTC.
Position N 43°33' E 007°02'.
Warning: this ship's position is 25 days out of date.

Length 13 m.

Type: Sailing vessel. MMSI: 232006036.

Date/timePositionNaut miles runAvg speedWind from/ knotsBaromVisibWave heightAir tempDewpointWater temp
2017-Nov-18 15:06N 43°33' E 007°02'0 0.0
2017-Nov-18 15:00N 43°33' E 007°02'0 0.9
2017-Nov-18 14:30N 43°32' E 007°01'3 5.4
2017-Nov-18 13:59N 43°30' E 007°02'4 7.4
2017-Nov-18 13:30N 43°31' E 006°58'3 5.2
2017-Nov-18 12:59N 43°30' E 007°01'3 5.2
2017-Nov-18 12:29N 43°28' E 007°04'2 4.5
2017-Nov-18 11:59N 43°27' E 007°07'2 3.3
2017-Nov-18 11:26N 43°29' E 007°05'1 2.6
2017-Nov-18 11:01N 43°29' E 007°04'2 3.0
2017-Nov-18 10:24N 43°30' E 007°02'2 4.4
2017-Nov-18 10:00N 43°32' E 007°02'  
Track history (hours):
 
Tides and Currents Weather Stations Pressure Air Temp Water Temp Dewpoint Dewpoint Depression Visibility Wind Speed Wind Dir Waves Ship Positions

Blacky

Last reported at 2017-Nov-18 15:06 UTC. Time now 2017-Dec-13 16:56 UTC.
Position N 43°33' E 007°02'.
Warning: this ship's position is 25 days out of date.

Length 13 m.

Type: Sailing vessel. MMSI: 232006036.

Date/timePositionNaut miles runAvg speedWind from/ knotsBaromVisibWave heightAir tempDewpointWater temp
2017-Nov-18 15:06N 43°33' E 007°02'0 0.0
2017-Nov-18 15:00N 43°33' E 007°02'0 0.9
2017-Nov-18 14:30N 43°32' E 007°01'3 5.4
2017-Nov-18 13:59N 43°30' E 007°02'4 7.4
2017-Nov-18 13:30N 43°31' E 006°58'3 5.2
2017-Nov-18 12:59N 43°30' E 007°01'3 5.2
2017-Nov-18 12:29N 43°28' E 007°04'2 4.5
2017-Nov-18 11:59N 43°27' E 007°07'2 3.3
2017-Nov-18 11:26N 43°29' E 007°05'1 2.6
2017-Nov-18 11:01N 43°29' E 007°04'2 3.0
2017-Nov-18 10:24N 43°30' E 007°02'2 4.4
2017-Nov-18 10:00N 43°32' E 007°02'  

Dump ship's entire track history